sensor_id;sensor_type;location;lat;lon;timestamp;P1;durP1;ratioP1;P2;durP2;ratioP2
53339;SDS011;46212;50.258;19.062;2024-01-30T00:00:21;45.53;;;21.90;;
53339;SDS011;46212;50.258;19.062;2024-01-30T00:02:47;50.88;;;25.67;;
53339;SDS011;46212;50.258;19.062;2024-01-30T00:05:12;44.03;;;24.08;;
53339;SDS011;46212;50.258;19.062;2024-01-30T00:07:38;49.50;;;25.10;;
53339;SDS011;46212;50.258;19.062;2024-01-30T00:10:03;46.25;;;21.95;;
53339;SDS011;46212;50.258;19.062;2024-01-30T00:12:31;36.65;;;19.40;;
53339;SDS011;46212;50.258;19.062;2024-01-30T00:14:56;41.50;;;17.95;;
53339;SDS011;46212;50.258;19.062;2024-01-30T00:17:23;47.80;;;20.10;;
53339;SDS011;46212;50.258;19.062;2024-01-30T00:19:50;43.50;;;21.30;;
53339;SDS011;46212;50.258;19.062;2024-01-30T00:22:15;42.10;;;19.92;;
53339;SDS011;46212;50.258;19.062;2024-01-30T00:24:41;43.75;;;20.08;;
53339;SDS011;46212;50.258;19.062;2024-01-30T00:27:07;43.20;;;20.10;;
53339;SDS011;46212;50.258;19.062;2024-01-30T00:29:33;38.38;;;16.55;;
53339;SDS011;46212;50.258;19.062;2024-01-30T00:31:58;40.03;;;18.70;;
53339;SDS011;46212;50.258;19.062;2024-01-30T00:34:24;44.80;;;19.48;;
53339;SDS011;46212;50.258;19.062;2024-01-30T00:36:50;46.28;;;19.67;;
53339;SDS011;46212;50.258;19.062;2024-01-30T00:39:15;36.85;;;19.92;;
53339;SDS011;46212;50.258;19.062;2024-01-30T00:41:41;38.05;;;18.42;;
53339;SDS011;46212;50.258;19.062;2024-01-30T00:44:06;37.58;;;18.70;;
53339;SDS011;46212;50.258;19.062;2024-01-30T00:46:32;45.28;;;18.67;;
53339;SDS011;46212;50.258;19.062;2024-01-30T00:48:57;43.45;;;20.63;;
53339;SDS011;46212;50.258;19.062;2024-01-30T00:51:22;46.28;;;20.67;;
53339;SDS011;46212;50.258;19.062;2024-01-30T00:53:48;42.25;;;20.50;;
53339;SDS011;46212;50.258;19.062;2024-01-30T00:56:13;46.33;;;21.30;;
53339;SDS011;46212;50.258;19.062;2024-01-30T00:58:38;46.75;;;23.48;;
53339;SDS011;46212;50.258;19.062;2024-01-30T01:01:04;47.75;;;21.52;;
53339;SDS011;46212;50.258;19.062;2024-01-30T01:03:29;38.55;;;19.90;;
53339;SDS011;46212;50.258;19.062;2024-01-30T01:05:55;43.65;;;19.25;;
53339;SDS011;46212;50.258;19.062;2024-01-30T01:08:20;48.88;;;22.23;;
53339;SDS011;46212;50.258;19.062;2024-01-30T01:10:45;41.67;;;21.33;;
53339;SDS011;46212;50.258;19.062;2024-01-30T01:13:11;43.55;;;22.95;;
53339;SDS011;46212;50.258;19.062;2024-01-30T01:15:36;50.53;;;22.83;;
53339;SDS011;46212;50.258;19.062;2024-01-30T01:18:02;41.85;;;20.83;;
53339;SDS011;46212;50.258;19.062;2024-01-30T01:20:28;48.33;;;22.67;;
53339;SDS011;46212;50.258;19.062;2024-01-30T01:22:53;45.22;;;21.60;;
53339;SDS011;46212;50.258;19.062;2024-01-30T01:25:19;48.25;;;24.10;;
53339;SDS011;46212;50.258;19.062;2024-01-30T01:27:44;43.53;;;19.80;;
53339;SDS011;46212;50.258;19.062;2024-01-30T01:30:16;43.72;;;21.75;;
53339;SDS011;46212;50.258;19.062;2024-01-30T01:32:46;49.47;;;21.27;;
53339;SDS011;46212;50.258;19.062;2024-01-30T01:35:24;46.22;;;21.40;;
53339;SDS011;46212;50.258;19.062;2024-01-30T01:37:50;46.83;;;21.58;;
53339;SDS011;46212;50.258;19.062;2024-01-30T01:40:26;51.70;;;22.65;;
53339;SDS011;46212;50.258;19.062;2024-01-30T01:42:52;39.25;;;20.23;;
53339;SDS011;46212;50.258;19.062;2024-01-30T01:45:19;43.47;;;20.88;;
53339;SDS011;46212;50.258;19.062;2024-01-30T01:47:45;40.22;;;21.00;;
53339;SDS011;46212;50.258;19.062;2024-01-30T01:50:21;44.78;;;21.10;;
53339;SDS011;46212;50.258;19.062;2024-01-30T01:52:47;42.53;;;20.90;;
53339;SDS011;46212;50.258;19.062;2024-01-30T01:55:13;55.35;;;22.08;;
53339;SDS011;46212;50.258;19.062;2024-01-30T01:57:39;55.55;;;23.05;;
53339;SDS011;46212;50.258;19.062;2024-01-30T02:00:06;48.47;;;23.42;;
53339;SDS011;46212;50.258;19.062;2024-01-30T02:02:35;50.13;;;24.17;;
53339;SDS011;46212;50.258;19.062;2024-01-30T02:05:01;54.95;;;24.25;;
53339;SDS011;46212;50.258;19.062;2024-01-30T02:07:28;59.28;;;28.13;;
53339;SDS011;46212;50.258;19.062;2024-01-30T02:09:53;66.43;;;27.05;;
53339;SDS011;46212;50.258;19.062;2024-01-30T02:12:20;58.22;;;24.90;;
53339;SDS011;46212;50.258;19.062;2024-01-30T02:14:48;73.95;;;30.90;;
53339;SDS011;46212;50.258;19.062;2024-01-30T02:17:15;55.67;;;26.58;;
53339;SDS011;46212;50.258;19.062;2024-01-30T02:19:41;58.72;;;25.70;;
53339;SDS011;46212;50.258;19.062;2024-01-30T02:22:06;62.30;;;25.85;;
53339;SDS011;46212;50.258;19.062;2024-01-30T02:24:32;61.00;;;29.23;;
53339;SDS011;46212;50.258;19.062;2024-01-30T02:26:57;64.78;;;30.85;;
53339;SDS011;46212;50.258;19.062;2024-01-30T02:29:23;67.95;;;30.15;;
53339;SDS011;46212;50.258;19.062;2024-01-30T02:31:48;76.47;;;31.83;;
53339;SDS011;46212;50.258;19.062;2024-01-30T02:34:14;64.30;;;30.50;;
53339;SDS011;46212;50.258;19.062;2024-01-30T02:36:43;68.05;;;30.02;;
53339;SDS011;46212;50.258;19.062;2024-01-30T02:39:09;67.22;;;32.53;;
53339;SDS011;46212;50.258;19.062;2024-01-30T02:41:34;55.13;;;28.95;;
53339;SDS011;46212;50.258;19.062;2024-01-30T02:44:00;60.50;;;25.83;;
53339;SDS011;46212;50.258;19.062;2024-01-30T02:46:26;54.95;;;28.13;;
53339;SDS011;46212;50.258;19.062;2024-01-30T02:48:51;68.55;;;31.30;;
53339;SDS011;46212;50.258;19.062;2024-01-30T02:51:17;60.85;;;29.15;;
53339;SDS011;46212;50.258;19.062;2024-01-30T02:53:42;62.65;;;30.77;;
53339;SDS011;46212;50.258;19.062;2024-01-30T02:56:07;69.03;;;32.30;;
53339;SDS011;46212;50.258;19.062;2024-01-30T02:58:35;72.78;;;35.03;;
53339;SDS011;46212;50.258;19.062;2024-01-30T03:01:01;75.78;;;38.53;;
53339;SDS011;46212;50.258;19.062;2024-01-30T03:03:27;84.38;;;38.55;;
53339;SDS011;46212;50.258;19.062;2024-01-30T03:05:52;69.28;;;34.97;;
53339;SDS011;46212;50.258;19.062;2024-01-30T03:08:17;68.88;;;36.85;;
53339;SDS011;46212;50.258;19.062;2024-01-30T03:10:43;89.65;;;42.60;;
53339;SDS011;46212;50.258;19.062;2024-01-30T03:13:08;104.50;;;45.25;;
53339;SDS011;46212;50.258;19.062;2024-01-30T03:15:33;70.70;;;34.28;;
53339;SDS011;46212;50.258;19.062;2024-01-30T03:17:59;80.03;;;35.42;;
53339;SDS011;46212;50.258;19.062;2024-01-30T03:20:24;78.55;;;35.97;;
53339;SDS011;46212;50.258;19.062;2024-01-30T03:22:49;67.43;;;33.35;;
53339;SDS011;46212;50.258;19.062;2024-01-30T03:25:15;66.53;;;35.22;;
53339;SDS011;46212;50.258;19.062;2024-01-30T03:27:40;67.93;;;36.25;;
53339;SDS011;46212;50.258;19.062;2024-01-30T03:30:06;72.38;;;34.88;;
53339;SDS011;46212;50.258;19.062;2024-01-30T03:32:32;77.15;;;34.65;;
53339;SDS011;46212;50.258;19.062;2024-01-30T03:34:57;93.10;;;39.63;;
53339;SDS011;46212;50.258;19.062;2024-01-30T03:37:23;86.25;;;42.20;;
53339;SDS011;46212;50.258;19.062;2024-01-30T03:39:48;104.97;;;42.40;;
53339;SDS011;46212;50.258;19.062;2024-01-30T03:42:14;99.95;;;46.88;;
53339;SDS011;46212;50.258;19.062;2024-01-30T03:44:39;110.20;;;51.10;;
53339;SDS011;46212;50.258;19.062;2024-01-30T03:47:05;112.85;;;52.80;;
53339;SDS011;46212;50.258;19.062;2024-01-30T03:49:30;105.28;;;50.20;;
53339;SDS011;46212;50.258;19.062;2024-01-30T03:51:55;91.20;;;46.58;;
53339;SDS011;46212;50.258;19.062;2024-01-30T03:54:21;80.53;;;37.80;;
53339;SDS011;46212;50.258;19.062;2024-01-30T03:56:46;92.28;;;42.78;;
53339;SDS011;46212;50.258;19.062;2024-01-30T03:59:12;74.07;;;36.90;;
53339;SDS011;46212;50.258;19.062;2024-01-30T04:01:37;83.53;;;39.00;;
53339;SDS011;46212;50.258;19.062;2024-01-30T04:04:02;91.65;;;39.88;;
53339;SDS011;46212;50.258;19.062;2024-01-30T04:06:28;81.18;;;39.03;;
53339;SDS011;46212;50.258;19.062;2024-01-30T04:08:53;55.00;;;25.38;;
53339;SDS011;46212;50.258;19.062;2024-01-30T04:11:19;46.45;;;21.08;;
53339;SDS011;46212;50.258;19.062;2024-01-30T04:13:47;50.88;;;24.15;;
53339;SDS011;46212;50.258;19.062;2024-01-30T04:16:22;55.65;;;27.80;;
53339;SDS011;46212;50.258;19.062;2024-01-30T04:18:48;70.05;;;32.05;;
53339;SDS011;46212;50.258;19.062;2024-01-30T04:21:13;44.25;;;23.95;;
53339;SDS011;46212;50.258;19.062;2024-01-30T04:23:39;75.35;;;36.15;;
53339;SDS011;46212;50.258;19.062;2024-01-30T04:26:05;51.80;;;25.95;;
53339;SDS011;46212;50.258;19.062;2024-01-30T04:28:31;55.47;;;27.00;;
53339;SDS011;46212;50.258;19.062;2024-01-30T04:30:56;27.30;;;15.45;;
53339;SDS011;46212;50.258;19.062;2024-01-30T04:33:22;26.40;;;14.00;;
53339;SDS011;46212;50.258;19.062;2024-01-30T04:35:47;29.10;;;16.02;;
53339;SDS011;46212;50.258;19.062;2024-01-30T04:38:12;32.28;;;14.73;;
53339;SDS011;46212;50.258;19.062;2024-01-30T04:40:39;26.20;;;13.00;;
53339;SDS011;46212;50.258;19.062;2024-01-30T04:43:05;28.45;;;12.82;;
53339;SDS011;46212;50.258;19.062;2024-01-30T04:45:30;28.10;;;13.05;;
53339;SDS011;46212;50.258;19.062;2024-01-30T04:47:55;37.47;;;14.68;;
53339;SDS011;46212;50.258;19.062;2024-01-30T04:50:21;38.95;;;15.32;;
53339;SDS011;46212;50.258;19.062;2024-01-30T04:52:46;22.52;;;13.00;;
53339;SDS011;46212;50.258;19.062;2024-01-30T04:55:12;25.65;;;12.70;;
53339;SDS011;46212;50.258;19.062;2024-01-30T04:57:37;21.33;;;11.15;;
53339;SDS011;46212;50.258;19.062;2024-01-30T05:00:03;20.73;;;10.75;;
53339;SDS011;46212;50.258;19.062;2024-01-30T05:02:28;23.75;;;10.02;;
53339;SDS011;46212;50.258;19.062;2024-01-30T05:04:54;20.63;;;11.02;;
53339;SDS011;46212;50.258;19.062;2024-01-30T05:07:19;21.50;;;10.75;;
53339;SDS011;46212;50.258;19.062;2024-01-30T05:09:45;28.13;;;11.35;;
53339;SDS011;46212;50.258;19.062;2024-01-30T05:12:10;20.83;;;9.40;;
53339;SDS011;46212;50.258;19.062;2024-01-30T05:14:35;30.35;;;9.95;;
53339;SDS011;46212;50.258;19.062;2024-01-30T05:17:01;17.40;;;10.25;;
53339;SDS011;46212;50.258;19.062;2024-01-30T05:19:28;21.25;;;10.10;;
53339;SDS011;46212;50.258;19.062;2024-01-30T05:21:53;22.15;;;9.32;;
53339;SDS011;46212;50.258;19.062;2024-01-30T05:24:19;21.83;;;10.18;;
53339;SDS011;46212;50.258;19.062;2024-01-30T05:26:44;17.15;;;8.23;;
53339;SDS011;46212;50.258;19.062;2024-01-30T05:29:09;20.30;;;9.07;;
53339;SDS011;46212;50.258;19.062;2024-01-30T05:31:35;20.67;;;9.50;;
53339;SDS011;46212;50.258;19.062;2024-01-30T05:34:00;21.60;;;11.02;;
53339;SDS011;46212;50.258;19.062;2024-01-30T05:36:26;26.13;;;11.43;;
53339;SDS011;46212;50.258;19.062;2024-01-30T05:38:52;39.13;;;20.73;;
53339;SDS011;46212;50.258;19.062;2024-01-30T05:41:17;68.50;;;29.27;;
53339;SDS011;46212;50.258;19.062;2024-01-30T05:43:43;97.65;;;45.72;;
53339;SDS011;46212;50.258;19.062;2024-01-30T05:46:09;139.27;;;59.25;;
53339;SDS011;46212;50.258;19.062;2024-01-30T05:48:34;125.60;;;57.75;;
53339;SDS011;46212;50.258;19.062;2024-01-30T05:51:00;130.90;;;57.25;;
53339;SDS011;46212;50.258;19.062;2024-01-30T05:53:26;121.60;;;59.23;;
53339;SDS011;46212;50.258;19.062;2024-01-30T05:55:52;122.60;;;57.65;;
53339;SDS011;46212;50.258;19.062;2024-01-30T05:58:17;123.72;;;57.75;;
53339;SDS011;46212;50.258;19.062;2024-01-30T06:00:42;127.63;;;58.08;;
53339;SDS011;46212;50.258;19.062;2024-01-30T06:03:08;114.80;;;56.75;;
53339;SDS011;46212;50.258;19.062;2024-01-30T06:05:33;120.88;;;58.00;;
53339;SDS011;46212;50.258;19.062;2024-01-30T06:07:58;110.50;;;56.75;;
53339;SDS011;46212;50.258;19.062;2024-01-30T06:10:24;125.68;;;58.45;;
53339;SDS011;46212;50.258;19.062;2024-01-30T06:12:49;119.18;;;56.88;;
53339;SDS011;46212;50.258;19.062;2024-01-30T06:15:14;139.52;;;63.92;;
53339;SDS011;46212;50.258;19.062;2024-01-30T06:17:40;119.18;;;64.15;;
53339;SDS011;46212;50.258;19.062;2024-01-30T06:20:05;135.88;;;61.10;;
53339;SDS011;46212;50.258;19.062;2024-01-30T06:22:31;139.75;;;64.45;;
53339;SDS011;46212;50.258;19.062;2024-01-30T06:24:57;140.13;;;62.58;;
53339;SDS011;46212;50.258;19.062;2024-01-30T06:27:22;138.80;;;61.45;;
53339;SDS011;46212;50.258;19.062;2024-01-30T06:29:47;125.97;;;55.22;;
53339;SDS011;46212;50.258;19.062;2024-01-30T06:32:13;117.13;;;57.78;;
53339;SDS011;46212;50.258;19.062;2024-01-30T06:34:38;129.07;;;64.22;;
53339;SDS011;46212;50.258;19.062;2024-01-30T06:37:05;128.38;;;59.00;;
53339;SDS011;46212;50.258;19.062;2024-01-30T06:39:30;132.60;;;55.95;;
53339;SDS011;46212;50.258;19.062;2024-01-30T06:41:56;110.43;;;58.22;;
53339;SDS011;46212;50.258;19.062;2024-01-30T06:44:21;108.88;;;56.45;;
53339;SDS011;46212;50.258;19.062;2024-01-30T06:46:47;129.18;;;56.97;;
53339;SDS011;46212;50.258;19.062;2024-01-30T06:49:12;128.35;;;57.60;;
53339;SDS011;46212;50.258;19.062;2024-01-30T06:51:38;128.45;;;62.97;;
53339;SDS011;46212;50.258;19.062;2024-01-30T06:54:03;147.30;;;66.97;;
53339;SDS011;46212;50.258;19.062;2024-01-30T06:56:29;147.35;;;63.42;;
53339;SDS011;46212;50.258;19.062;2024-01-30T06:58:54;131.50;;;58.70;;
53339;SDS011;46212;50.258;19.062;2024-01-30T07:01:20;138.65;;;63.75;;
53339;SDS011;46212;50.258;19.062;2024-01-30T07:03:46;140.82;;;63.28;;
53339;SDS011;46212;50.258;19.062;2024-01-30T07:06:11;111.20;;;59.63;;
53339;SDS011;46212;50.258;19.062;2024-01-30T07:08:37;136.30;;;65.85;;
53339;SDS011;46212;50.258;19.062;2024-01-30T07:11:04;129.95;;;62.25;;
53339;SDS011;46212;50.258;19.062;2024-01-30T07:13:33;125.50;;;57.38;;
53339;SDS011;46212;50.258;19.062;2024-01-30T07:15:59;118.15;;;58.92;;
53339;SDS011;46212;50.258;19.062;2024-01-30T07:18:25;130.82;;;59.53;;
53339;SDS011;46212;50.258;19.062;2024-01-30T07:20:50;128.18;;;61.22;;
53339;SDS011;46212;50.258;19.062;2024-01-30T07:23:16;134.77;;;64.20;;
53339;SDS011;46212;50.258;19.062;2024-01-30T07:25:45;132.98;;;62.45;;
53339;SDS011;46212;50.258;19.062;2024-01-30T07:28:13;135.45;;;65.57;;
53339;SDS011;46212;50.258;19.062;2024-01-30T07:30:41;139.90;;;67.63;;
53339;SDS011;46212;50.258;19.062;2024-01-30T07:33:07;130.82;;;63.08;;
53339;SDS011;46212;50.258;19.062;2024-01-30T07:35:33;149.60;;;64.90;;
53339;SDS011;46212;50.258;19.062;2024-01-30T07:37:59;130.65;;;64.82;;
53339;SDS011;46212;50.258;19.062;2024-01-30T07:40:24;141.63;;;63.10;;
53339;SDS011;46212;50.258;19.062;2024-01-30T07:42:49;133.85;;;60.00;;
53339;SDS011;46212;50.258;19.062;2024-01-30T07:45:15;121.95;;;56.40;;
53339;SDS011;46212;50.258;19.062;2024-01-30T07:47:41;115.85;;;51.83;;
53339;SDS011;46212;50.258;19.062;2024-01-30T07:50:07;98.33;;;47.40;;
53339;SDS011;46212;50.258;19.062;2024-01-30T07:52:33;105.72;;;47.10;;
53339;SDS011;46212;50.258;19.062;2024-01-30T07:54:58;104.65;;;49.03;;
53339;SDS011;46212;50.258;19.062;2024-01-30T07:57:24;248.30;;;113.70;;
53339;SDS011;46212;50.258;19.062;2024-01-30T07:59:50;207.57;;;104.57;;
53339;SDS011;46212;50.258;19.062;2024-01-30T08:02:15;123.10;;;55.67;;
53339;SDS011;46212;50.258;19.062;2024-01-30T08:04:41;125.35;;;58.17;;
53339;SDS011;46212;50.258;19.062;2024-01-30T08:07:06;121.20;;;66.35;;
53339;SDS011;46212;50.258;19.062;2024-01-30T08:09:32;145.23;;;70.35;;
53339;SDS011;46212;50.258;19.062;2024-01-30T08:11:57;89.45;;;47.22;;
53339;SDS011;46212;50.258;19.062;2024-01-30T08:14:22;114.30;;;58.83;;
53339;SDS011;46212;50.258;19.062;2024-01-30T08:16:48;120.82;;;57.53;;
53339;SDS011;46212;50.258;19.062;2024-01-30T08:19:14;116.10;;;53.70;;
53339;SDS011;46212;50.258;19.062;2024-01-30T08:21:40;80.32;;;42.40;;
53339;SDS011;46212;50.258;19.062;2024-01-30T08:24:05;68.10;;;38.95;;
53339;SDS011;46212;50.258;19.062;2024-01-30T08:26:31;66.40;;;34.77;;
53339;SDS011;46212;50.258;19.062;2024-01-30T08:28:57;40.43;;;19.93;;
53339;SDS011;46212;50.258;19.062;2024-01-30T08:31:23;25.40;;;14.27;;
53339;SDS011;46212;50.258;19.062;2024-01-30T08:33:49;32.95;;;15.80;;
53339;SDS011;46212;50.258;19.062;2024-01-30T08:36:15;20.63;;;9.13;;
53339;SDS011;46212;50.258;19.062;2024-01-30T08:38:41;21.80;;;9.57;;
53339;SDS011;46212;50.258;19.062;2024-01-30T08:41:07;19.83;;;10.05;;
53339;SDS011;46212;50.258;19.062;2024-01-30T08:43:33;24.65;;;11.07;;
53339;SDS011;46212;50.258;19.062;2024-01-30T08:45:58;21.75;;;9.20;;
53339;SDS011;46212;50.258;19.062;2024-01-30T08:48:25;22.80;;;10.43;;
53339;SDS011;46212;50.258;19.062;2024-01-30T08:50:50;17.20;;;9.45;;
53339;SDS011;46212;50.258;19.062;2024-01-30T08:53:16;23.05;;;11.02;;
53339;SDS011;46212;50.258;19.062;2024-01-30T08:55:41;19.23;;;9.30;;
53339;SDS011;46212;50.258;19.062;2024-01-30T08:58:06;26.65;;;8.82;;
53339;SDS011;46212;50.258;19.062;2024-01-30T09:00:33;34.28;;;13.73;;
53339;SDS011;46212;50.258;19.062;2024-01-30T09:02:58;20.85;;;10.77;;
53339;SDS011;46212;50.258;19.062;2024-01-30T09:05:23;23.83;;;9.25;;
53339;SDS011;46212;50.258;19.062;2024-01-30T09:07:49;14.73;;;7.25;;
53339;SDS011;46212;50.258;19.062;2024-01-30T09:10:14;20.23;;;8.68;;
53339;SDS011;46212;50.258;19.062;2024-01-30T09:12:40;20.27;;;10.73;;
53339;SDS011;46212;50.258;19.062;2024-01-30T09:15:06;12.93;;;7.78;;
53339;SDS011;46212;50.258;19.062;2024-01-30T09:17:32;21.80;;;8.18;;
53339;SDS011;46212;50.258;19.062;2024-01-30T09:19:58;17.93;;;7.23;;
53339;SDS011;46212;50.258;19.062;2024-01-30T09:22:23;14.93;;;7.90;;
53339;SDS011;46212;50.258;19.062;2024-01-30T09:24:49;12.93;;;7.93;;
53339;SDS011;46212;50.258;19.062;2024-01-30T09:27:14;19.17;;;8.10;;
53339;SDS011;46212;50.258;19.062;2024-01-30T09:29:40;61.38;;;31.50;;
53339;SDS011;46212;50.258;19.062;2024-01-30T09:32:05;31.60;;;20.55;;
53339;SDS011;46212;50.258;19.062;2024-01-30T09:34:31;14.40;;;6.67;;
53339;SDS011;46212;50.258;19.062;2024-01-30T09:36:57;13.02;;;7.05;;
53339;SDS011;46212;50.258;19.062;2024-01-30T09:39:23;14.50;;;7.68;;
53339;SDS011;46212;50.258;19.062;2024-01-30T09:41:49;14.85;;;6.47;;
53339;SDS011;46212;50.258;19.062;2024-01-30T09:44:25;15.25;;;7.32;;
53339;SDS011;46212;50.258;19.062;2024-01-30T09:46:53;14.63;;;6.60;;
53339;SDS011;46212;50.258;19.062;2024-01-30T09:49:19;19.55;;;8.15;;
53339;SDS011;46212;50.258;19.062;2024-01-30T09:51:45;15.95;;;8.18;;
53339;SDS011;46212;50.258;19.062;2024-01-30T09:54:13;15.52;;;8.32;;
53339;SDS011;46212;50.258;19.062;2024-01-30T09:56:40;15.65;;;8.20;;
53339;SDS011;46212;50.258;19.062;2024-01-30T09:59:05;16.88;;;7.95;;
53339;SDS011;46212;50.258;19.062;2024-01-30T10:01:31;16.08;;;7.15;;
53339;SDS011;46212;50.258;19.062;2024-01-30T10:03:58;20.85;;;7.85;;
53339;SDS011;46212;50.258;19.062;2024-01-30T10:06:24;19.67;;;8.60;;
53339;SDS011;46212;50.258;19.062;2024-01-30T10:08:49;12.23;;;7.55;;
53339;SDS011;46212;50.258;19.062;2024-01-30T10:11:15;20.10;;;7.75;;
53339;SDS011;46212;50.258;19.062;2024-01-30T10:13:40;17.25;;;8.00;;
53339;SDS011;46212;50.258;19.062;2024-01-30T10:16:06;19.85;;;8.90;;
53339;SDS011;46212;50.258;19.062;2024-01-30T10:18:31;18.27;;;7.53;;
53339;SDS011;46212;50.258;19.062;2024-01-30T10:20:57;18.20;;;8.47;;
53339;SDS011;46212;50.258;19.062;2024-01-30T10:23:23;13.85;;;8.07;;
53339;SDS011;46212;50.258;19.062;2024-01-30T10:25:50;20.40;;;8.67;;
53339;SDS011;46212;50.258;19.062;2024-01-30T10:28:16;19.30;;;9.20;;
53339;SDS011;46212;50.258;19.062;2024-01-30T10:30:42;19.93;;;7.40;;
53339;SDS011;46212;50.258;19.062;2024-01-30T10:33:07;14.00;;;6.97;;
53339;SDS011;46212;50.258;19.062;2024-01-30T10:35:33;13.88;;;7.53;;
53339;SDS011;46212;50.258;19.062;2024-01-30T10:37:58;16.85;;;8.02;;
53339;SDS011;46212;50.258;19.062;2024-01-30T10:40:27;15.15;;;7.25;;
53339;SDS011;46212;50.258;19.062;2024-01-30T10:42:53;14.13;;;6.15;;
53339;SDS011;46212;50.258;19.062;2024-01-30T10:45:21;15.43;;;7.00;;
53339;SDS011;46212;50.258;19.062;2024-01-30T10:47:52;15.82;;;7.28;;
53339;SDS011;46212;50.258;19.062;2024-01-30T10:50:19;39.78;;;21.55;;
53339;SDS011;46212;50.258;19.062;2024-01-30T10:52:45;17.90;;;6.43;;
53339;SDS011;46212;50.258;19.062;2024-01-30T10:55:12;15.68;;;6.30;;
53339;SDS011;46212;50.258;19.062;2024-01-30T10:57:38;15.05;;;6.47;;
53339;SDS011;46212;50.258;19.062;2024-01-30T11:00:07;8.50;;;4.85;;
53339;SDS011;46212;50.258;19.062;2024-01-30T11:02:41;13.57;;;6.13;;
53339;SDS011;46212;50.258;19.062;2024-01-30T11:05:08;11.85;;;5.35;;
53339;SDS011;46212;50.258;19.062;2024-01-30T11:07:34;10.07;;;4.47;;
53339;SDS011;46212;50.258;19.062;2024-01-30T11:12:29;14.70;;;5.90;;
53339;SDS011;46212;50.258;19.062;2024-01-30T11:15:14;12.25;;;5.93;;
53339;SDS011;46212;50.258;19.062;2024-01-30T11:17:44;14.10;;;6.25;;
53339;SDS011;46212;50.258;19.062;2024-01-30T11:20:16;17.88;;;6.53;;
53339;SDS011;46212;50.258;19.062;2024-01-30T11:22:45;7.82;;;4.70;;
53339;SDS011;46212;50.258;19.062;2024-01-30T11:25:12;13.48;;;6.10;;
53339;SDS011;46212;50.258;19.062;2024-01-30T11:27:45;8.57;;;5.03;;
53339;SDS011;46212;50.258;19.062;2024-01-30T11:30:21;11.20;;;5.18;;
53339;SDS011;46212;50.258;19.062;2024-01-30T11:32:46;13.68;;;5.28;;
53339;SDS011;46212;50.258;19.062;2024-01-30T11:35:35;18.42;;;6.07;;
53339;SDS011;46212;50.258;19.062;2024-01-30T11:38:02;12.20;;;5.65;;
53339;SDS011;46212;50.258;19.062;2024-01-30T11:42:55;15.57;;;5.88;;
53339;SDS011;46212;50.258;19.062;2024-01-30T11:45:21;12.07;;;5.72;;
53339;SDS011;46212;50.258;19.062;2024-01-30T11:47:47;15.65;;;8.40;;
53339;SDS011;46212;50.258;19.062;2024-01-30T11:50:12;14.83;;;7.23;;
53339;SDS011;46212;50.258;19.062;2024-01-30T11:52:39;14.23;;;7.18;;
53339;SDS011;46212;50.258;19.062;2024-01-30T11:55:05;14.48;;;5.88;;
53339;SDS011;46212;50.258;19.062;2024-01-30T11:57:30;12.93;;;5.55;;
53339;SDS011;46212;50.258;19.062;2024-01-30T11:59:56;15.37;;;6.97;;
53339;SDS011;46212;50.258;19.062;2024-01-30T12:02:21;11.10;;;5.90;;
53339;SDS011;46212;50.258;19.062;2024-01-30T12:04:47;17.90;;;5.77;;
53339;SDS011;46212;50.258;19.062;2024-01-30T12:07:12;13.97;;;6.03;;
53339;SDS011;46212;50.258;19.062;2024-01-30T12:09:41;14.93;;;7.18;;
53339;SDS011;46212;50.258;19.062;2024-01-30T12:12:07;11.40;;;6.03;;
53339;SDS011;46212;50.258;19.062;2024-01-30T12:14:36;25.58;;;10.45;;
53339;SDS011;46212;50.258;19.062;2024-01-30T12:17:04;17.92;;;8.18;;
53339;SDS011;46212;50.258;19.062;2024-01-30T12:19:30;13.60;;;6.83;;
53339;SDS011;46212;50.258;19.062;2024-01-30T12:21:58;21.20;;;7.37;;
53339;SDS011;46212;50.258;19.062;2024-01-30T12:24:27;22.55;;;7.50;;
53339;SDS011;46212;50.258;19.062;2024-01-30T12:26:56;24.10;;;8.43;;
53339;SDS011;46212;50.258;19.062;2024-01-30T12:29:22;12.82;;;7.03;;
53339;SDS011;46212;50.258;19.062;2024-01-30T12:31:47;17.20;;;7.37;;
53339;SDS011;46212;50.258;19.062;2024-01-30T12:34:13;14.10;;;7.50;;
53339;SDS011;46212;50.258;19.062;2024-01-30T12:36:41;13.60;;;7.03;;
53339;SDS011;46212;50.258;19.062;2024-01-30T12:39:10;14.87;;;7.37;;
53339;SDS011;46212;50.258;19.062;2024-01-30T12:41:36;13.40;;;6.13;;
53339;SDS011;46212;50.258;19.062;2024-01-30T12:44:02;16.90;;;7.50;;
53339;SDS011;46212;50.258;19.062;2024-01-30T12:46:28;19.60;;;6.77;;
53339;SDS011;46212;50.258;19.062;2024-01-30T12:48:54;18.63;;;9.25;;
53339;SDS011;46212;50.258;19.062;2024-01-30T12:51:19;13.50;;;6.43;;
53339;SDS011;46212;50.258;19.062;2024-01-30T12:53:44;36.77;;;20.17;;
53339;SDS011;46212;50.258;19.062;2024-01-30T12:56:12;95.20;;;46.00;;
53339;SDS011;46212;50.258;19.062;2024-01-30T12:58:38;16.33;;;6.87;;
53339;SDS011;46212;50.258;19.062;2024-01-30T13:01:03;20.57;;;9.57;;
53339;SDS011;46212;50.258;19.062;2024-01-30T13:03:29;19.03;;;9.13;;
53339;SDS011;46212;50.258;19.062;2024-01-30T13:05:54;12.77;;;6.53;;
53339;SDS011;46212;50.258;19.062;2024-01-30T13:08:21;14.27;;;6.33;;
53339;SDS011;46212;50.258;19.062;2024-01-30T13:10:46;11.52;;;6.72;;
53339;SDS011;46212;50.258;19.062;2024-01-30T13:13:12;14.00;;;7.77;;
53339;SDS011;46212;50.258;19.062;2024-01-30T13:15:37;20.80;;;9.30;;
53339;SDS011;46212;50.258;19.062;2024-01-30T13:18:03;14.53;;;7.80;;
53339;SDS011;46212;50.258;19.062;2024-01-30T13:22:55;30.70;;;13.25;;
53339;SDS011;46212;50.258;19.062;2024-01-30T13:25:21;15.00;;;7.27;;
53339;SDS011;46212;50.258;19.062;2024-01-30T13:27:46;14.77;;;6.63;;
53339;SDS011;46212;50.258;19.062;2024-01-30T13:30:11;11.10;;;6.80;;
53339;SDS011;46212;50.258;19.062;2024-01-30T13:32:37;15.07;;;8.00;;
53339;SDS011;46212;50.258;19.062;2024-01-30T13:35:03;14.40;;;8.00;;
53339;SDS011;46212;50.258;19.062;2024-01-30T13:37:28;19.60;;;9.33;;
53339;SDS011;46212;50.258;19.062;2024-01-30T13:39:54;12.48;;;7.03;;
53339;SDS011;46212;50.258;19.062;2024-01-30T13:42:20;14.80;;;7.50;;
53339;SDS011;46212;50.258;19.062;2024-01-30T13:44:45;11.50;;;6.40;;
53339;SDS011;46212;50.258;19.062;2024-01-30T13:47:11;11.17;;;6.87;;
53339;SDS011;46212;50.258;19.062;2024-01-30T13:49:36;11.33;;;6.60;;
53339;SDS011;46212;50.258;19.062;2024-01-30T13:52:01;13.03;;;7.27;;
53339;SDS011;46212;50.258;19.062;2024-01-30T13:56:53;15.23;;;7.32;;
53339;SDS011;46212;50.258;19.062;2024-01-30T13:59:19;16.67;;;6.73;;
53339;SDS011;46212;50.258;19.062;2024-01-30T14:01:48;30.15;;;15.98;;
53339;SDS011;46212;50.258;19.062;2024-01-30T14:04:14;15.30;;;7.73;;
53339;SDS011;46212;50.258;19.062;2024-01-30T14:06:39;17.53;;;9.70;;
53339;SDS011;46212;50.258;19.062;2024-01-30T14:09:05;16.33;;;11.55;;
53339;SDS011;46212;50.258;19.062;2024-01-30T14:11:31;21.73;;;12.83;;
53339;SDS011;46212;50.258;19.062;2024-01-30T14:13:56;21.00;;;10.20;;